sensor_id;sensor_type;location;lat;lon;timestamp;P1;durP1;ratioP1;P2;durP2;ratioP2
80136;SDS011;76989;55.950;37.484;2024-03-07T00:02:20;16.73;;;6.25;;
80136;SDS011;76989;55.950;37.484;2024-03-07T00:04:47;18.70;;;7.57;;
80136;SDS011;76989;55.950;37.484;2024-03-07T00:07:13;16.17;;;7.35;;
80136;SDS011;76989;55.950;37.484;2024-03-07T00:12:11;21.33;;;8.68;;
80136;SDS011;76989;55.950;37.484;2024-03-07T00:14:38;18.40;;;8.13;;
80136;SDS011;76989;55.950;37.484;2024-03-07T00:17:04;22.55;;;9.27;;
80136;SDS011;76989;55.950;37.484;2024-03-07T00:19:33;18.45;;;7.85;;
80136;SDS011;76989;55.950;37.484;2024-03-07T00:22:04;17.42;;;9.25;;
80136;SDS011;76989;55.950;37.484;2024-03-07T00:24:30;19.30;;;8.00;;
80136;SDS011;76989;55.950;37.484;2024-03-07T00:26:56;18.92;;;8.15;;
80136;SDS011;76989;55.950;37.484;2024-03-07T00:29:22;18.45;;;7.95;;
80136;SDS011;76989;55.950;37.484;2024-03-07T00:31:49;18.65;;;8.18;;
80136;SDS011;76989;55.950;37.484;2024-03-07T00:34:15;23.92;;;9.25;;
80136;SDS011;76989;55.950;37.484;2024-03-07T00:36:43;15.82;;;8.82;;
80136;SDS011;76989;55.950;37.484;2024-03-07T00:39:09;28.25;;;8.68;;
80136;SDS011;76989;55.950;37.484;2024-03-07T00:41:38;20.67;;;8.40;;
80136;SDS011;76989;55.950;37.484;2024-03-07T00:44:09;23.70;;;10.10;;
80136;SDS011;76989;55.950;37.484;2024-03-07T00:46:36;16.67;;;8.45;;
80136;SDS011;76989;55.950;37.484;2024-03-07T00:49:04;15.57;;;8.98;;
80136;SDS011;76989;55.950;37.484;2024-03-07T00:51:30;15.30;;;7.68;;
80136;SDS011;76989;55.950;37.484;2024-03-07T00:53:59;13.02;;;6.80;;
80136;SDS011;76989;55.950;37.484;2024-03-07T00:56:25;11.63;;;5.30;;
80136;SDS011;76989;55.950;37.484;2024-03-07T00:58:52;15.40;;;7.75;;
80136;SDS011;76989;55.950;37.484;2024-03-07T01:01:18;23.98;;;10.40;;
80136;SDS011;76989;55.950;37.484;2024-03-07T01:03:47;13.68;;;6.10;;
80136;SDS011;76989;55.950;37.484;2024-03-07T01:06:14;13.73;;;5.47;;
80136;SDS011;76989;55.950;37.484;2024-03-07T01:08:40;13.23;;;5.38;;
80136;SDS011;76989;55.950;37.484;2024-03-07T01:11:08;19.95;;;6.95;;
80136;SDS011;76989;55.950;37.484;2024-03-07T01:13:38;21.15;;;7.43;;
80136;SDS011;76989;55.950;37.484;2024-03-07T01:16:05;18.52;;;7.57;;
80136;SDS011;76989;55.950;37.484;2024-03-07T01:18:33;16.15;;;8.25;;
80136;SDS011;76989;55.950;37.484;2024-03-07T01:20:59;15.70;;;8.13;;
80136;SDS011;76989;55.950;37.484;2024-03-07T01:23:27;19.88;;;7.70;;
80136;SDS011;76989;55.950;37.484;2024-03-07T01:25:57;23.33;;;9.27;;
80136;SDS011;76989;55.950;37.484;2024-03-07T01:28:25;17.48;;;10.27;;
80136;SDS011;76989;55.950;37.484;2024-03-07T01:30:56;22.10;;;8.10;;
80136;SDS011;76989;55.950;37.484;2024-03-07T01:33:24;16.30;;;7.32;;
80136;SDS011;76989;55.950;37.484;2024-03-07T01:35:50;19.17;;;8.85;;
80136;SDS011;76989;55.950;37.484;2024-03-07T01:38:20;13.07;;;7.20;;
80136;SDS011;76989;55.950;37.484;2024-03-07T01:40:46;16.80;;;8.70;;
80136;SDS011;76989;55.950;37.484;2024-03-07T01:43:17;13.38;;;6.57;;
80136;SDS011;76989;55.950;37.484;2024-03-07T01:45:43;16.58;;;7.45;;
80136;SDS011;76989;55.950;37.484;2024-03-07T01:48:10;13.63;;;6.88;;
80136;SDS011;76989;55.950;37.484;2024-03-07T01:53:32;16.70;;;7.07;;
80136;SDS011;76989;55.950;37.484;2024-03-07T01:56:00;18.02;;;7.72;;
80136;SDS011;76989;55.950;37.484;2024-03-07T01:58:29;17.25;;;7.68;;
80136;SDS011;76989;55.950;37.484;2024-03-07T02:00:59;15.77;;;7.22;;
80136;SDS011;76989;55.950;37.484;2024-03-07T02:03:25;34.75;;;12.45;;
80136;SDS011;76989;55.950;37.484;2024-03-07T02:05:51;29.77;;;12.30;;
80136;SDS011;76989;55.950;37.484;2024-03-07T02:08:18;28.38;;;10.73;;
80136;SDS011;76989;55.950;37.484;2024-03-07T02:10:45;20.73;;;8.88;;
80136;SDS011;76989;55.950;37.484;2024-03-07T02:13:12;17.90;;;9.10;;
80136;SDS011;76989;55.950;37.484;2024-03-07T02:15:40;27.40;;;8.77;;
80136;SDS011;76989;55.950;37.484;2024-03-07T02:18:09;18.67;;;8.10;;
80136;SDS011;76989;55.950;37.484;2024-03-07T02:20:35;20.67;;;7.97;;
80136;SDS011;76989;55.950;37.484;2024-03-07T02:23:02;22.85;;;7.65;;
80136;SDS011;76989;55.950;37.484;2024-03-07T02:25:29;18.95;;;8.05;;
80136;SDS011;76989;55.950;37.484;2024-03-07T02:27:56;18.65;;;8.90;;
80136;SDS011;76989;55.950;37.484;2024-03-07T02:30:22;15.27;;;7.15;;
80136;SDS011;76989;55.950;37.484;2024-03-07T02:32:49;17.70;;;8.60;;
80136;SDS011;76989;55.950;37.484;2024-03-07T02:35:18;19.55;;;8.07;;
80136;SDS011;76989;55.950;37.484;2024-03-07T02:37:44;21.80;;;8.88;;
80136;SDS011;76989;55.950;37.484;2024-03-07T02:40:14;22.55;;;8.45;;
80136;SDS011;76989;55.950;37.484;2024-03-07T02:42:42;19.77;;;7.70;;
80136;SDS011;76989;55.950;37.484;2024-03-07T02:45:10;20.25;;;8.63;;
80136;SDS011;76989;55.950;37.484;2024-03-07T02:47:43;18.42;;;8.00;;
80136;SDS011;76989;55.950;37.484;2024-03-07T02:50:10;16.15;;;8.68;;
80136;SDS011;76989;55.950;37.484;2024-03-07T02:52:37;21.65;;;8.80;;
80136;SDS011;76989;55.950;37.484;2024-03-07T02:55:05;21.58;;;9.18;;
80136;SDS011;76989;55.950;37.484;2024-03-07T02:57:31;20.15;;;6.97;;
80136;SDS011;76989;55.950;37.484;2024-03-07T02:59:58;18.85;;;7.35;;
80136;SDS011;76989;55.950;37.484;2024-03-07T03:02:24;16.17;;;8.10;;
80136;SDS011;76989;55.950;37.484;2024-03-07T03:04:50;25.50;;;8.68;;
80136;SDS011;76989;55.950;37.484;2024-03-07T03:07:16;19.83;;;9.10;;
80136;SDS011;76989;55.950;37.484;2024-03-07T03:09:44;18.83;;;8.65;;
80136;SDS011;76989;55.950;37.484;2024-03-07T03:12:10;15.00;;;8.27;;
80136;SDS011;76989;55.950;37.484;2024-03-07T03:14:37;16.10;;;8.57;;
80136;SDS011;76989;55.950;37.484;2024-03-07T03:17:03;23.73;;;8.73;;
80136;SDS011;76989;55.950;37.484;2024-03-07T03:19:30;15.43;;;8.68;;
80136;SDS011;76989;55.950;37.484;2024-03-07T03:21:56;19.52;;;9.77;;
80136;SDS011;76989;55.950;37.484;2024-03-07T03:24:22;18.98;;;8.63;;
80136;SDS011;76989;55.950;37.484;2024-03-07T03:26:57;16.30;;;9.02;;
80136;SDS011;76989;55.950;37.484;2024-03-07T03:29:55;18.33;;;8.13;;
80136;SDS011;76989;55.950;37.484;2024-03-07T03:32:22;23.38;;;8.30;;
80136;SDS011;76989;55.950;37.484;2024-03-07T03:34:48;24.13;;;8.80;;
80136;SDS011;76989;55.950;37.484;2024-03-07T03:37:16;19.33;;;7.57;;
80136;SDS011;76989;55.950;37.484;2024-03-07T03:39:42;18.13;;;7.88;;
80136;SDS011;76989;55.950;37.484;2024-03-07T03:42:10;18.08;;;7.82;;
80136;SDS011;76989;55.950;37.484;2024-03-07T03:44:36;21.38;;;10.15;;
80136;SDS011;76989;55.950;37.484;2024-03-07T03:47:03;18.92;;;9.25;;
80136;SDS011;76989;55.950;37.484;2024-03-07T03:49:29;19.02;;;9.18;;
80136;SDS011;76989;55.950;37.484;2024-03-07T03:51:56;20.48;;;8.75;;
80136;SDS011;76989;55.950;37.484;2024-03-07T03:54:25;22.70;;;9.98;;
80136;SDS011;76989;55.950;37.484;2024-03-07T03:56:55;16.30;;;8.02;;
80136;SDS011;76989;55.950;37.484;2024-03-07T03:59:25;26.15;;;8.05;;
80136;SDS011;76989;55.950;37.484;2024-03-07T04:01:53;18.50;;;8.90;;
80136;SDS011;76989;55.950;37.484;2024-03-07T04:04:23;20.88;;;9.68;;
80136;SDS011;76989;55.950;37.484;2024-03-07T04:06:52;17.98;;;9.57;;
80136;SDS011;76989;55.950;37.484;2024-03-07T04:09:18;20.70;;;9.68;;
80136;SDS011;76989;55.950;37.484;2024-03-07T04:11:45;27.23;;;11.15;;
80136;SDS011;76989;55.950;37.484;2024-03-07T04:14:16;25.02;;;11.75;;
80136;SDS011;76989;55.950;37.484;2024-03-07T04:16:44;29.70;;;11.77;;
80136;SDS011;76989;55.950;37.484;2024-03-07T04:19:15;24.13;;;11.02;;
80136;SDS011;76989;55.950;37.484;2024-03-07T04:21:49;26.67;;;10.95;;
80136;SDS011;76989;55.950;37.484;2024-03-07T04:24:17;31.75;;;12.52;;
80136;SDS011;76989;55.950;37.484;2024-03-07T04:27:31;21.83;;;10.60;;
80136;SDS011;76989;55.950;37.484;2024-03-07T04:29:59;27.20;;;9.57;;
80136;SDS011;76989;55.950;37.484;2024-03-07T04:32:30;19.75;;;8.82;;
80136;SDS011;76989;55.950;37.484;2024-03-07T04:40:58;21.58;;;10.18;;
80136;SDS011;76989;55.950;37.484;2024-03-07T04:43:24;21.40;;;8.82;;
80136;SDS011;76989;55.950;37.484;2024-03-07T04:45:51;35.25;;;12.90;;
80136;SDS011;76989;55.950;37.484;2024-03-07T04:48:19;26.42;;;9.55;;
80136;SDS011;76989;55.950;37.484;2024-03-07T04:50:45;20.85;;;10.60;;
80136;SDS011;76989;55.950;37.484;2024-03-07T04:53:12;20.90;;;8.48;;
80136;SDS011;76989;55.950;37.484;2024-03-07T04:55:38;19.23;;;9.23;;
80136;SDS011;76989;55.950;37.484;2024-03-07T04:58:04;24.35;;;8.45;;
80136;SDS011;76989;55.950;37.484;2024-03-07T05:00:30;18.83;;;6.82;;
80136;SDS011;76989;55.950;37.484;2024-03-07T05:02:57;15.63;;;7.30;;
80136;SDS011;76989;55.950;37.484;2024-03-07T05:05:24;15.98;;;6.97;;
80136;SDS011;76989;55.950;37.484;2024-03-07T05:07:52;16.88;;;6.40;;
80136;SDS011;76989;55.950;37.484;2024-03-07T05:10:19;14.68;;;5.15;;
80136;SDS011;76989;55.950;37.484;2024-03-07T05:16:04;12.30;;;4.38;;
80136;SDS011;76989;55.950;37.484;2024-03-07T05:18:30;10.90;;;4.72;;
80136;SDS011;76989;55.950;37.484;2024-03-07T05:21:01;12.60;;;4.63;;
80136;SDS011;76989;55.950;37.484;2024-03-07T05:23:48;10.27;;;4.00;;
80136;SDS011;76989;55.950;37.484;2024-03-07T05:26:14;10.57;;;4.07;;
80136;SDS011;76989;55.950;37.484;2024-03-07T05:28:42;13.85;;;4.93;;
80136;SDS011;76989;55.950;37.484;2024-03-07T05:31:09;10.48;;;4.70;;
80136;SDS011;76989;55.950;37.484;2024-03-07T05:33:38;13.25;;;5.50;;
80136;SDS011;76989;55.950;37.484;2024-03-07T05:36:06;12.52;;;4.95;;
80136;SDS011;76989;55.950;37.484;2024-03-07T05:38:45;7.82;;;4.00;;
80136;SDS011;76989;55.950;37.484;2024-03-07T05:41:11;11.50;;;4.35;;
80136;SDS011;76989;55.950;37.484;2024-03-07T05:43:40;9.07;;;4.82;;
80136;SDS011;76989;55.950;37.484;2024-03-07T05:46:08;11.65;;;4.63;;
80136;SDS011;76989;55.950;37.484;2024-03-07T05:48:36;8.68;;;4.18;;
80136;SDS011;76989;55.950;37.484;2024-03-07T05:51:03;11.00;;;4.47;;
80136;SDS011;76989;55.950;37.484;2024-03-07T05:53:30;8.38;;;3.97;;
80136;SDS011;76989;55.950;37.484;2024-03-07T05:55:58;8.25;;;4.20;;
80136;SDS011;76989;55.950;37.484;2024-03-07T05:58:26;10.98;;;5.30;;
80136;SDS011;76989;55.950;37.484;2024-03-07T06:01:00;9.10;;;3.75;;
80136;SDS011;76989;55.950;37.484;2024-03-07T06:03:26;11.68;;;5.13;;
80136;SDS011;76989;55.950;37.484;2024-03-07T06:05:52;8.70;;;5.18;;
80136;SDS011;76989;55.950;37.484;2024-03-07T06:08:19;9.02;;;3.83;;
80136;SDS011;76989;55.950;37.484;2024-03-07T06:10:47;9.30;;;4.18;;
80136;SDS011;76989;55.950;37.484;2024-03-07T06:13:14;11.63;;;4.35;;
80136;SDS011;76989;55.950;37.484;2024-03-07T06:15:45;11.82;;;4.90;;
80136;SDS011;76989;55.950;37.484;2024-03-07T06:18:21;10.40;;;5.13;;
80136;SDS011;76989;55.950;37.484;2024-03-07T06:20:48;6.75;;;4.03;;
80136;SDS011;76989;55.950;37.484;2024-03-07T06:23:14;7.97;;;4.22;;
80136;SDS011;76989;55.950;37.484;2024-03-07T06:25:43;12.70;;;4.82;;
80136;SDS011;76989;55.950;37.484;2024-03-07T06:28:16;10.52;;;3.90;;
80136;SDS011;76989;55.950;37.484;2024-03-07T06:30:44;9.43;;;4.63;;
80136;SDS011;76989;55.950;37.484;2024-03-07T06:33:13;11.65;;;4.40;;
80136;SDS011;76989;55.950;37.484;2024-03-07T06:35:50;9.65;;;4.47;;
80136;SDS011;76989;55.950;37.484;2024-03-07T06:38:19;8.70;;;4.60;;
80136;SDS011;76989;55.950;37.484;2024-03-07T06:43:46;12.10;;;4.47;;
80136;SDS011;76989;55.950;37.484;2024-03-07T06:46:14;9.80;;;3.92;;
80136;SDS011;76989;55.950;37.484;2024-03-07T06:48:42;10.10;;;3.70;;
80136;SDS011;76989;55.950;37.484;2024-03-07T06:51:08;7.50;;;3.95;;
80136;SDS011;76989;55.950;37.484;2024-03-07T06:53:35;11.10;;;5.10;;
80136;SDS011;76989;55.950;37.484;2024-03-07T06:56:01;8.90;;;4.18;;
80136;SDS011;76989;55.950;37.484;2024-03-07T06:58:27;8.65;;;5.05;;
80136;SDS011;76989;55.950;37.484;2024-03-07T07:00:54;12.80;;;4.90;;
80136;SDS011;76989;55.950;37.484;2024-03-07T07:03:22;8.50;;;4.30;;
80136;SDS011;76989;55.950;37.484;2024-03-07T07:05:48;10.45;;;4.90;;
80136;SDS011;76989;55.950;37.484;2024-03-07T07:08:14;12.55;;;5.55;;
80136;SDS011;76989;55.950;37.484;2024-03-07T07:13:29;9.55;;;4.65;;
80136;SDS011;76989;55.950;37.484;2024-03-07T07:15:58;12.05;;;4.80;;
80136;SDS011;76989;55.950;37.484;2024-03-07T07:18:25;9.77;;;4.85;;
80136;SDS011;76989;55.950;37.484;2024-03-07T07:20:51;9.02;;;4.20;;
80136;SDS011;76989;55.950;37.484;2024-03-07T07:23:23;23.88;;;5.13;;
80136;SDS011;76989;55.950;37.484;2024-03-07T07:25:51;9.52;;;4.60;;
80136;SDS011;76989;55.950;37.484;2024-03-07T07:28:17;9.07;;;4.47;;
80136;SDS011;76989;55.950;37.484;2024-03-07T07:30:43;7.45;;;3.72;;
80136;SDS011;76989;55.950;37.484;2024-03-07T07:33:09;9.57;;;4.38;;
80136;SDS011;76989;55.950;37.484;2024-03-07T07:35:36;8.38;;;3.78;;
80136;SDS011;76989;55.950;37.484;2024-03-07T07:38:03;8.55;;;3.88;;
80136;SDS011;76989;55.950;37.484;2024-03-07T07:40:32;6.72;;;3.00;;
80136;SDS011;76989;55.950;37.484;2024-03-07T07:42:59;6.90;;;3.65;;
80136;SDS011;76989;55.950;37.484;2024-03-07T07:45:27;8.82;;;3.85;;
80136;SDS011;76989;55.950;37.484;2024-03-07T07:47:53;7.25;;;3.30;;
80136;SDS011;76989;55.950;37.484;2024-03-07T07:50:21;8.02;;;3.40;;
80136;SDS011;76989;55.950;37.484;2024-03-07T07:52:50;9.60;;;4.30;;
80136;SDS011;76989;55.950;37.484;2024-03-07T07:55:22;6.93;;;3.53;;
80136;SDS011;76989;55.950;37.484;2024-03-07T07:57:51;8.32;;;3.95;;
80136;SDS011;76989;55.950;37.484;2024-03-07T08:00:18;7.35;;;3.70;;
80136;SDS011;76989;55.950;37.484;2024-03-07T08:05:17;8.07;;;3.75;;
80136;SDS011;76989;55.950;37.484;2024-03-07T08:07:46;9.00;;;4.20;;
80136;SDS011;76989;55.950;37.484;2024-03-07T08:10:15;9.30;;;4.82;;
80136;SDS011;76989;55.950;37.484;2024-03-07T08:12:44;9.50;;;5.20;;
80136;SDS011;76989;55.950;37.484;2024-03-07T08:15:12;8.07;;;5.07;;
80136;SDS011;76989;55.950;37.484;2024-03-07T08:17:46;7.32;;;3.70;;
80136;SDS011;76989;55.950;37.484;2024-03-07T08:20:16;10.95;;;4.35;;
80136;SDS011;76989;55.950;37.484;2024-03-07T08:22:49;8.17;;;3.47;;
80136;SDS011;76989;55.950;37.484;2024-03-07T08:25:22;6.80;;;3.40;;
80136;SDS011;76989;55.950;37.484;2024-03-07T08:27:51;11.70;;;3.92;;
80136;SDS011;76989;55.950;37.484;2024-03-07T08:30:19;8.27;;;3.60;;
80136;SDS011;76989;55.950;37.484;2024-03-07T08:32:51;10.25;;;3.95;;
80136;SDS011;76989;55.950;37.484;2024-03-07T08:35:19;9.73;;;4.32;;
80136;SDS011;76989;55.950;37.484;2024-03-07T08:37:48;8.43;;;3.30;;
80136;SDS011;76989;55.950;37.484;2024-03-07T08:40:19;8.45;;;3.80;;
80136;SDS011;76989;55.950;37.484;2024-03-07T08:42:47;9.10;;;3.90;;
80136;SDS011;76989;55.950;37.484;2024-03-07T08:45:16;6.85;;;3.47;;
80136;SDS011;76989;55.950;37.484;2024-03-07T08:47:45;10.52;;;4.20;;
80136;SDS011;76989;55.950;37.484;2024-03-07T08:50:13;10.25;;;4.10;;
80136;SDS011;76989;55.950;37.484;2024-03-07T08:52:46;7.22;;;3.38;;
80136;SDS011;76989;55.950;37.484;2024-03-07T08:55:22;8.23;;;3.20;;
80136;SDS011;76989;55.950;37.484;2024-03-07T08:57:54;7.57;;;3.53;;
80136;SDS011;76989;55.950;37.484;2024-03-07T09:00:21;8.73;;;3.72;;
80136;SDS011;76989;55.950;37.484;2024-03-07T09:02:57;7.15;;;3.28;;
80136;SDS011;76989;55.950;37.484;2024-03-07T09:05:24;9.20;;;3.92;;
80136;SDS011;76989;55.950;37.484;2024-03-07T09:07:51;9.05;;;3.40;;
80136;SDS011;76989;55.950;37.484;2024-03-07T09:10:18;6.50;;;3.65;;
80136;SDS011;76989;55.950;37.484;2024-03-07T09:12:45;5.68;;;2.92;;
80136;SDS011;76989;55.950;37.484;2024-03-07T09:15:15;10.18;;;3.50;;
80136;SDS011;76989;55.950;37.484;2024-03-07T09:17:47;8.10;;;3.20;;
80136;SDS011;76989;55.950;37.484;2024-03-07T09:20:18;9.73;;;3.10;;
80136;SDS011;76989;55.950;37.484;2024-03-07T09:22:47;8.55;;;3.55;;
80136;SDS011;76989;55.950;37.484;2024-03-07T09:25:16;8.98;;;3.50;;
80136;SDS011;76989;55.950;37.484;2024-03-07T09:27:46;7.30;;;2.90;;
80136;SDS011;76989;55.950;37.484;2024-03-07T09:30:13;13.20;;;4.57;;
80136;SDS011;76989;55.950;37.484;2024-03-07T09:32:47;6.93;;;2.53;;
80136;SDS011;76989;55.950;37.484;2024-03-07T09:35:14;6.85;;;2.60;;
80136;SDS011;76989;55.950;37.484;2024-03-07T09:37:41;6.38;;;3.10;;
80136;SDS011;76989;55.950;37.484;2024-03-07T09:40:10;8.18;;;3.25;;
80136;SDS011;76989;55.950;37.484;2024-03-07T09:42:42;7.30;;;3.38;;
80136;SDS011;76989;55.950;37.484;2024-03-07T09:45:17;8.38;;;3.00;;
80136;SDS011;76989;55.950;37.484;2024-03-07T09:47:46;6.82;;;2.42;;
80136;SDS011;76989;55.950;37.484;2024-03-07T09:50:15;6.93;;;2.85;;
80136;SDS011;76989;55.950;37.484;2024-03-07T09:52:46;5.65;;;2.28;;
80136;SDS011;76989;55.950;37.484;2024-03-07T09:55:15;6.10;;;2.67;;
80136;SDS011;76989;55.950;37.484;2024-03-07T09:57:45;7.53;;;2.53;;
80136;SDS011;76989;55.950;37.484;2024-03-07T10:00:12;5.57;;;2.75;;
80136;SDS011;76989;55.950;37.484;2024-03-07T10:02:49;7.45;;;3.00;;
80136;SDS011;76989;55.950;37.484;2024-03-07T10:05:22;6.55;;;2.60;;
80136;SDS011;76989;55.950;37.484;2024-03-07T10:07:52;8.02;;;2.65;;
80136;SDS011;76989;55.950;37.484;2024-03-07T10:10:19;6.85;;;3.03;;
80136;SDS011;76989;55.950;37.484;2024-03-07T10:12:48;5.60;;;2.10;;
80136;SDS011;76989;55.950;37.484;2024-03-07T10:15:18;7.95;;;3.70;;
80136;SDS011;76989;55.950;37.484;2024-03-07T10:17:45;6.28;;;2.80;;
80136;SDS011;76989;55.950;37.484;2024-03-07T10:20:14;6.85;;;2.60;;
80136;SDS011;76989;55.950;37.484;2024-03-07T10:22:46;11.15;;;2.90;;
80136;SDS011;76989;55.950;37.484;2024-03-07T10:25:22;4.95;;;1.92;;
80136;SDS011;76989;55.950;37.484;2024-03-07T10:27:53;7.13;;;2.20;;
80136;SDS011;76989;55.950;37.484;2024-03-07T10:30:20;5.07;;;2.05;;
80136;SDS011;76989;55.950;37.484;2024-03-07T10:32:46;5.97;;;1.85;;
80136;SDS011;76989;55.950;37.484;2024-03-07T10:35:19;4.38;;;1.95;;
80136;SDS011;76989;55.950;37.484;2024-03-07T10:37:48;6.93;;;2.22;;
80136;SDS011;76989;55.950;37.484;2024-03-07T10:40:14;5.20;;;2.22;;
80136;SDS011;76989;55.950;37.484;2024-03-07T10:42:45;4.88;;;1.88;;
80136;SDS011;76989;55.950;37.484;2024-03-07T10:45:18;7.53;;;3.10;;
80136;SDS011;76989;55.950;37.484;2024-03-07T10:47:57;6.75;;;2.83;;
80136;SDS011;76989;55.950;37.484;2024-03-07T11:08:19;5.43;;;1.85;;
80136;SDS011;76989;55.950;37.484;2024-03-07T11:10:53;5.90;;;1.95;;
80136;SDS011;76989;55.950;37.484;2024-03-07T11:16:12;5.10;;;2.50;;
80136;SDS011;76989;55.950;37.484;2024-03-07T11:18:41;6.18;;;2.83;;
80136;SDS011;76989;55.950;37.484;2024-03-07T11:21:39;4.43;;;1.88;;
80136;SDS011;76989;55.950;37.484;2024-03-07T11:24:06;6.25;;;2.28;;
80136;SDS011;76989;55.950;37.484;2024-03-07T11:26:34;6.35;;;2.15;;
80136;SDS011;76989;55.950;37.484;2024-03-07T11:29:00;10.23;;;3.13;;
80136;SDS011;76989;55.950;37.484;2024-03-07T11:31:27;6.97;;;2.17;;
80136;SDS011;76989;55.950;37.484;2024-03-07T11:34:16;4.68;;;2.25;;
80136;SDS011;76989;55.950;37.484;2024-03-07T11:36:48;5.80;;;2.72;;
80136;SDS011;76989;55.950;37.484;2024-03-07T11:39:40;4.85;;;2.13;;
80136;SDS011;76989;55.950;37.484;2024-03-07T11:42:18;6.68;;;1.98;;
80136;SDS011;76989;55.950;37.484;2024-03-07T11:44:51;5.22;;;2.00;;
80136;SDS011;76989;55.950;37.484;2024-03-07T11:47:25;6.20;;;2.63;;
80136;SDS011;76989;55.950;37.484;2024-03-07T11:49:55;6.82;;;2.35;;
80136;SDS011;76989;55.950;37.484;2024-03-07T11:52:24;6.93;;;2.35;;
80136;SDS011;76989;55.950;37.484;2024-03-07T11:54:53;4.88;;;2.08;;
80136;SDS011;76989;55.950;37.484;2024-03-07T11:57:19;5.68;;;2.00;;
80136;SDS011;76989;55.950;37.484;2024-03-07T11:59:52;6.68;;;2.17;;
80136;SDS011;76989;55.950;37.484;2024-03-07T12:02:19;6.68;;;2.80;;
80136;SDS011;76989;55.950;37.484;2024-03-07T12:04:49;5.28;;;2.13;;
80136;SDS011;76989;55.950;37.484;2024-03-07T12:07:16;6.32;;;2.42;;
80136;SDS011;76989;55.950;37.484;2024-03-07T12:09:48;8.50;;;3.10;;
80136;SDS011;76989;55.950;37.484;2024-03-07T12:12:21;9.95;;;2.63;;
80136;SDS011;76989;55.950;37.484;2024-03-07T12:14:48;6.40;;;2.70;;
80136;SDS011;76989;55.950;37.484;2024-03-07T12:17:17;5.53;;;2.42;;
80136;SDS011;76989;55.950;37.484;2024-03-07T12:19:44;5.93;;;2.05;;
80136;SDS011;76989;55.950;37.484;2024-03-07T12:22:12;6.07;;;2.20;;
80136;SDS011;76989;55.950;37.484;2024-03-07T12:24:39;6.03;;;2.22;;
80136;SDS011;76989;55.950;37.484;2024-03-07T12:27:08;4.60;;;2.13;;
80136;SDS011;76989;55.950;37.484;2024-03-07T12:29:37;6.25;;;3.08;;
80136;SDS011;76989;55.950;37.484;2024-03-07T12:32:05;6.13;;;2.50;;
80136;SDS011;76989;55.950;37.484;2024-03-07T12:34:36;6.50;;;2.40;;
80136;SDS011;76989;55.950;37.484;2024-03-07T12:37:06;6.47;;;2.40;;
80136;SDS011;76989;55.950;37.484;2024-03-07T12:39:34;5.53;;;2.17;;
80136;SDS011;76989;55.950;37.484;2024-03-07T12:42:04;6.40;;;2.05;;
80136;SDS011;76989;55.950;37.484;2024-03-07T12:44:41;5.13;;;1.80;;
80136;SDS011;76989;55.950;37.484;2024-03-07T12:47:11;6.20;;;2.10;;
80136;SDS011;76989;55.950;37.484;2024-03-07T12:49:40;4.97;;;2.05;;
80136;SDS011;76989;55.950;37.484;2024-03-07T12:52:11;4.30;;;1.35;;
80136;SDS011;76989;55.950;37.484;2024-03-07T12:54:41;7.15;;;2.65;;
80136;SDS011;76989;55.950;37.484;2024-03-07T12:57:09;4.03;;;1.52;;
80136;SDS011;76989;55.950;37.484;2024-03-07T12:59:39;4.50;;;1.45;;
80136;SDS011;76989;55.950;37.484;2024-03-07T13:02:10;6.68;;;2.40;;
80136;SDS011;76989;55.950;37.484;2024-03-07T13:04:38;5.47;;;1.70;;
80136;SDS011;76989;55.950;37.484;2024-03-07T13:07:04;6.25;;;1.70;;
80136;SDS011;76989;55.950;37.484;2024-03-07T13:09:35;3.47;;;1.40;;
80136;SDS011;76989;55.950;37.484;2024-03-07T13:12:03;5.20;;;2.08;;
80136;SDS011;76989;55.950;37.484;2024-03-07T13:14:35;4.22;;;1.83;;
80136;SDS011;76989;55.950;37.484;2024-03-07T13:17:04;4.80;;;1.42;;
80136;SDS011;76989;55.950;37.484;2024-03-07T13:19:32;5.28;;;1.42;;
80136;SDS011;76989;55.950;37.484;2024-03-07T13:21:58;3.72;;;1.50;;
80136;SDS011;76989;55.950;37.484;2024-03-07T13:28:12;5.18;;;1.75;;
80136;SDS011;76989;55.950;37.484;2024-03-07T13:30:43;7.10;;;1.60;;
80136;SDS011;76989;55.950;37.484;2024-03-07T13:33:10;5.57;;;1.48;;
80136;SDS011;76989;55.950;37.484;2024-03-07T13:35:38;4.18;;;1.50;;
80136;SDS011;76989;55.950;37.484;2024-03-07T13:38:05;4.97;;;1.55;;
80136;SDS011;76989;55.950;37.484;2024-03-07T13:40:32;3.42;;;1.30;;
80136;SDS011;76989;55.950;37.484;2024-03-07T13:43:05;3.80;;;1.50;;
80136;SDS011;76989;55.950;37.484;2024-03-07T13:45:33;3.60;;;1.25;;
80136;SDS011;76989;55.950;37.484;2024-03-07T13:48:09;4.43;;;1.58;;
80136;SDS011;76989;55.950;37.484;2024-03-07T13:50:38;5.57;;;1.40;;
80136;SDS011;76989;55.950;37.484;2024-03-07T13:53:09;3.92;;;1.58;;
80136;SDS011;76989;55.950;37.484;2024-03-07T13:58:17;5.50;;;1.70;;
80136;SDS011;76989;55.950;37.484;2024-03-07T14:04:18;5.40;;;1.70;;
80136;SDS011;76989;55.950;37.484;2024-03-07T14:13:26;4.00;;;1.50;;
80136;SDS011;76989;55.950;37.484;2024-03-07T14:16:18;3.72;;;1.40;;
80136;SDS011;76989;55.950;37.484;2024-03-07T14:19:55;6.20;;;1.73;;
80136;SDS011;76989;55.950;37.484;2024-03-07T14:22:16;4.05;;;1.58;;
80136;SDS011;76989;55.950;37.484;2024-03-07T14:25:18;3.50;;;1.55;;
80136;SDS011;76989;55.950;37.484;2024-03-07T14:28:12;8.43;;;1.73;;
80136;SDS011;76989;55.950;37.484;2024-03-07T14:33:20;5.25;;;1.83;;
80136;SDS011;76989;55.950;37.484;2024-03-07T14:36:11;4.93;;;2.00;;
80136;SDS011;76989;55.950;37.484;2024-03-07T14:38:48;6.32;;;2.08;;
80136;SDS011;76989;55.950;37.484;2024-03-07T14:41:20;3.40;;;1.45;;
80136;SDS011;76989;55.950;37.484;2024-03-07T14:44:04;6.15;;;1.80;;
80136;SDS011;76989;55.950;37.484;2024-03-07T14:46:33;4.75;;;2.00;;
80136;SDS011;76989;55.950;37.484;2024-03-07T14:49:00;5.45;;;2.03;;
80136;SDS011;76989;55.950;37.484;2024-03-07T14:51:27;5.13;;;2.42;;
80136;SDS011;76989;55.950;37.484;2024-03-07T14:53:54;4.47;;;2.10;;
80136;SDS011;76989;55.950;37.484;2024-03-07T14:56:20;5.28;;;1.98;;
80136;SDS011;76989;55.950;37.484;2024-03-07T14:58:46;6.15;;;2.05;;
80136;SDS011;76989;55.950;37.484;2024-03-07T15:01:12;7.38;;;2.33;;
80136;SDS011;76989;55.950;37.484;2024-03-07T15:03:42;7.90;;;2.00;;
80136;SDS011;76989;55.950;37.484;2024-03-07T15:06:12;6.30;;;2.42;;
80136;SDS011;76989;55.950;37.484;2024-03-07T15:08:40;7.10;;;2.95;;
80136;SDS011;76989;55.950;37.484;2024-03-07T15:11:11;7.95;;;2.22;;
80136;SDS011;76989;55.950;37.484;2024-03-07T15:13:46;6.55;;;2.22;;
80136;SDS011;76989;55.950;37.484;2024-03-07T15:16:15;5.20;;;2.30;;
80136;SDS011;76989;55.950;37.484;2024-03-07T15:18:42;6.22;;;2.33;;
80136;SDS011;76989;55.950;37.484;2024-03-07T15:21:09;5.32;;;2.40;;
80136;SDS011;76989;55.950;37.484;2024-03-07T15:23:43;8.75;;;2.30;;
80136;SDS011;76989;55.950;37.484;2024-03-07T15:26:10;8.00;;;2.50;;
80136;SDS011;76989;55.950;37.484;2024-03-07T15:28:37;5.82;;;2.15;;
80136;SDS011;76989;55.950;37.484;2024-03-07T15:31:03;4.72;;;1.90;;
80136;SDS011;76989;55.950;37.484;2024-03-07T15:33:33;7.05;;;2.05;;
80136;SDS011;76989;55.950;37.484;2024-03-07T15:35:59;5.45;;;1.95;;
80136;SDS011;76989;55.950;37.484;2024-03-07T15:38:26;6.65;;;2.15;;
80136;SDS011;76989;55.950;37.484;2024-03-07T15:40:59;4.88;;;2.00;;
80136;SDS011;76989;55.950;37.484;2024-03-07T15:43:27;4.63;;;2.22;;
80136;SDS011;76989;55.950;37.484;2024-03-07T15:45:54;5.20;;;2.30;;